Time;durP1;ratioP1;P1;durP2;ratioP2;P2;SDS_P1;SDS_P2;PMS_P1;PMS_P2;Temp;Humidity;BMP_temperature;BMP_pressure;BME280_temperature;BME280_humidity;BME280_pressure;Samples;Min_cycle;Max_cycle;Signal;HPM_P1;HPM_P2
2021/03/01 00:01:29;;;;;;;;;;;;;;;;;;5022391;28;1575;-62
2021/03/01 00:03:54;;;;;;;;;;;;;;;;;;5037716;28;1987;-60
2021/03/01 00:06:20;;;;;;;;;;;;;;;;;;5047290;28;1081;-60
2021/03/01 00:08:46;;;;;;;;;;;;;;;;;;5018075;28;1493;-60
2021/03/01 00:11:11;;;;;;;;;;;;;;;;;;5025791;28;1599;-61
2021/03/01 00:13:36;;;;;;;;;;;;;;;;;;5013918;28;1588;-61
2021/03/01 00:16:02;;;;;;;;;;;;;;;;;;5007047;28;994;-60
2021/03/01 00:18:27;;;;;;;;;;;;;;;;;;5006260;28;871;-61
2021/03/01 00:20:53;;;;;;;;;;;;;;;;;;5019740;28;1505;-62
2021/03/01 00:23:18;;;;;;;;;;;;;;;;;;5009582;28;1579;-60
2021/03/01 00:25:44;;;;;;;;;;;;;;;;;;5020858;28;1980;-62
2021/03/01 00:28:09;;;;;;;;;;;;;;;;;;5006939;28;820;-62
2021/03/01 00:30:35;;;;;;;;;;;;;;;;;;5007611;28;803;-61
2021/03/01 00:33:00;;;;;;;;;;;;;;;;;;5012299;28;1631;-62
2021/03/01 00:35:26;;;;;;;;;;;;;;;;;;5024074;28;1565;-61
2021/03/01 00:37:51;;;;;;;;;;;;;;;;;;5023752;28;1543;-61
2021/03/01 00:40:17;;;;;;;;;;;;;;;;;;5022459;28;1534;-60
2021/03/01 00:42:43;;;;;;;;;;;;;;;;;;5023473;28;1644;-60
2021/03/01 00:45:09;;;;;;;;;;;;;;;;;;5021756;28;1890;-62
2021/03/01 00:47:34;;;;;;;;;;;;;;;;;;5027336;28;853;-60
2021/03/01 00:49:59;;;;;;;;;;;;;;;;;;5025886;28;855;-60
2021/03/01 00:52:25;;;;;;;;;;;;;;;;;;5027056;28;881;-61
2021/03/01 00:54:50;;;;;;;;;;;;;;;;;;5024382;28;1431;-61
2021/03/01 00:57:16;;;;;;;;;;;;;;;;;;5023348;28;1486;-63
2021/03/01 00:59:41;;;;;;;;;;;;;;;;;;5012929;28;1218;-63
2021/03/01 01:02:07;;;;;;;;;;;;;;;;;;5026113;28;843;-63
2021/03/01 01:04:32;;;;;;;;;;;;;;;;;;5043050;28;1898;-60
2021/03/01 01:06:57;;;;;;;;;;;;;;;;;;5046142;28;878;-60
2021/03/01 01:09:23;;;;;;;;;;;;;;;;;;5016401;28;1459;-60
2021/03/01 01:11:48;;;;;;;;;;;;;;;;;;5006880;28;887;-60
2021/03/01 01:14:14;;;;;;;;;;;;;;;;;;5007027;28;1627;-62
2021/03/01 01:16:40;;;;;;;;;;;;;;;;;;5026568;28;906;-60
2021/03/01 01:19:06;;;;;;;;;;;;;;;;;;5026928;28;879;-60
2021/03/01 01:21:32;;;;;;;;;;;;;;;;;;5029742;28;851;-61
2021/03/01 01:23:57;;;;;;;;;;;;;;;;;;5011706;28;1975;-60
2021/03/01 01:26:22;;;;;;;;;;;;;;;;;;5010532;28;942;-60
2021/03/01 01:28:48;;;;;;;;;;;;;;;;;;5028311;28;1433;-60
2021/03/01 01:31:14;;;;;;;;;;;;;;;;;;5010431;28;1848;-60
2021/03/01 01:33:39;;;;;;;;;;;;;;;;;;5026660;28;1611;-60
2021/03/01 01:36:04;;;;;;;;;;;;;;;;;;5028017;28;2376;-60
2021/03/01 01:38:30;;;;;;;;;;;;;;;;;;5028000;28;1452;-60
2021/03/01 01:40:55;;;;;;;;;;;;;;;;;;5022655;28;1575;-60
2021/03/01 01:43:20;;;;;;;;;;;;;;;;;;5008472;28;1424;-59
2021/03/01 01:45:46;;;;;;;;;;;;;;;;;;5009062;28;1890;-60
2021/03/01 01:48:11;;;;;;;;;;;;;;;;;;5008940;28;1583;-60
2021/03/01 01:50:37;;;;;;;;;;;;;;;;;;5029077;28;1560;-62
2021/03/01 01:53:03;;;;;;;;;;;;;;;;;;5029655;28;831;-59
2021/03/01 01:55:28;;;;;;;;;;;;;;;;;;5009181;28;1496;-62
2021/03/01 01:57:54;;;;;;;;;;;;;;;;;;5027541;28;1627;-60
2021/03/01 02:02:58;;;;;;;;;;;;;;;;;;5031478;28;1040;-61
2021/03/01 02:05:25;;;;;;;;;;;;;;;;;;5021577;28;1902;-59
2021/03/01 02:08:16;;;;;;;;;;;;;;;;;;5010212;28;820;-60
2021/03/01 02:10:46;;;;;;;;;;;;;;;;;;5011471;28;2524;-60
2021/03/01 02:13:14;;;;;;;;;;;;;;;;;;5028263;28;1576;-61
2021/03/01 02:15:43;;;;;;;;;;;;;;;;;;5026984;28;1547;-59
2021/03/01 02:18:08;;;;;;;;;;;;;;;;;;5029507;28;815;-60
2021/03/01 02:20:34;;;;;;;;;;;;;;;;;;5029426;28;832;-61
2021/03/01 02:22:59;;;;;;;;;;;;;;;;;;5018613;28;1549;-61
2021/03/01 02:25:27;;;;;;;;;;;;;;;;;;5008937;28;1973;-61
2021/03/01 02:27:56;;;;;;;;;;;;;;;;;;5014312;28;1590;-61
2021/03/01 02:30:24;;;;;;;;;;;;;;;;;;5027453;28;1627;-60
2021/03/01 02:32:52;;;;;;;;;;;;;;;;;;5028318;28;835;-60
2021/03/01 02:35:20;;;;;;;;;;;;;;;;;;5028918;28;812;-62
2021/03/01 02:37:46;;;;;;;;;;;;;;;;;;5016328;28;1525;-61
2021/03/01 02:40:12;;;;;;;;;;;;;;;;;;5027347;28;1286;-62
2021/03/01 02:42:39;;;;;;;;;;;;;;;;;;5026695;28;1528;-60
2021/03/01 02:45:06;;;;;;;;;;;;;;;;;;5027148;28;1898;-61
2021/03/01 02:47:32;;;;;;;;;;;;;;;;;;5026920;28;1414;-61
2021/03/01 02:49:59;;;;;;;;;;;;;;;;;;5025218;28;1623;-62
2021/03/01 02:52:25;;;;;;;;;;;;;;;;;;5007641;28;1432;-62
2021/03/01 02:54:51;;;;;;;;;;;;;;;;;;5018161;28;1481;-60
2021/03/01 02:57:18;;;;;;;;;;;;;;;;;;5021361;28;1536;-62
2021/03/01 02:59:44;;;;;;;;;;;;;;;;;;5027415;28;1364;-62
2021/03/01 03:02:10;;;;;;;;;;;;;;;;;;5027339;28;1415;-62
2021/03/01 03:04:37;;;;;;;;;;;;;;;;;;5045664;28;1922;-62
2021/03/01 03:07:03;;;;;;;;;;;;;;;;;;5049163;28;815;-62
2021/03/01 03:09:29;;;;;;;;;;;;;;;;;;5036893;28;1552;-61
2021/03/01 03:11:56;;;;;;;;;;;;;;;;;;5009184;28;886;-62
2021/03/01 03:14:23;;;;;;;;;;;;;;;;;;5016119;28;887;-60
2021/03/01 03:16:50;;;;;;;;;;;;;;;;;;5027613;28;1248;-60
2021/03/01 03:19:16;;;;;;;;;;;;;;;;;;5029143;28;812;-60
2021/03/01 03:21:41;;;;;;;;;;;;;;;;;;5021787;28;1797;-61
2021/03/01 03:24:07;;;;;;;;;;;;;;;;;;5029243;28;1894;-60
2021/03/01 03:26:33;;;;;;;;;;;;;;;;;;5027548;28;1322;-59
2021/03/01 03:28:58;;;;;;;;;;;;;;;;;;5007150;28;1479;-60
2021/03/01 03:31:24;;;;;;;;;;;;;;;;;;5026411;28;1367;-60
2021/03/01 03:33:50;;;;;;;;;;;;;;;;;;5037082;28;1425;-60
2021/03/01 03:36:17;;;;;;;;;;;;;;;;;;5022721;28;1582;-60
2021/03/01 03:38:46;;;;;;;;;;;;;;;;;;5023098;28;1470;-59
2021/03/01 03:41:12;;;;;;;;;;;;;;;;;;5026658;28;997;-60
2021/03/01 03:43:39;;;;;;;;;;;;;;;;;;5011024;28;1800;-61
2021/03/01 03:46:06;;;;;;;;;;;;;;;;;;5022828;28;1890;-60
2021/03/01 03:48:32;;;;;;;;;;;;;;;;;;5027071;28;919;-59
2021/03/01 03:51:03;;;;;;;;;;;;;;;;;;5016684;28;1580;-60
2021/03/01 03:53:31;;;;;;;;;;;;;;;;;;5020051;28;1452;-60
2021/03/01 03:55:59;;;;;;;;;;;;;;;;;;5006330;28;1712;-60
2021/03/01 03:58:27;;;;;;;;;;;;;;;;;;5009068;28;1158;-60
2021/03/01 04:00:53;;;;;;;;;;;;;;;;;;5005985;28;1480;-59
2021/03/01 04:03:21;;;;;;;;;;;;;;;;;;5013571;28;1907;-60
2021/03/01 04:05:47;;;;;;;;;;;;;;;;;;5015647;28;1969;-60
2021/03/01 04:08:14;;;;;;;;;;;;;;;;;;5001545;28;1594;-59
2021/03/01 04:10:51;;;;;;;;;;;;;;;;;;5004534;28;1459;-60
2021/03/01 04:13:17;;;;;;;;;;;;;;;;;;5004858;28;1600;-59
2021/03/01 04:15:49;;;;;;;;;;;;;;;;;;5007136;28;907;-60
2021/03/01 04:18:17;;;;;;;;;;;;;;;;;;4991159;28;1421;-60
2021/03/01 04:20:44;;;;;;;;;;;;;;;;;;5003361;28;1486;-60
2021/03/01 04:23:09;;;;;;;;;;;;;;;;;;4992485;28;1421;-61
2021/03/01 04:25:35;;;;;;;;;;;;;;;;;;4997600;28;1963;-59
2021/03/01 04:28:01;;;;;;;;;;;;;;;;;;5000267;28;1376;-61
2021/03/01 04:30:27;;;;;;;;;;;;;;;;;;4986958;28;851;-61
2021/03/01 04:32:53;;;;;;;;;;;;;;;;;;4986918;28;840;-59
2021/03/01 04:35:19;;;;;;;;;;;;;;;;;;4987413;28;1436;-60
2021/03/01 04:37:45;;;;;;;;;;;;;;;;;;4987140;28;1517;-59
2021/03/01 04:40:11;;;;;;;;;;;;;;;;;;5005419;28;1550;-62
2021/03/01 04:42:37;;;;;;;;;;;;;;;;;;5005578;28;1624;-59
2021/03/01 04:45:03;;;;;;;;;;;;;;;;;;5003300;28;1902;-60
2021/03/01 04:47:29;;;;;;;;;;;;;;;;;;5003289;28;1471;-60
2021/03/01 04:49:55;;;;;;;;;;;;;;;;;;4988072;28;816;-59
2021/03/01 04:52:21;;;;;;;;;;;;;;;;;;4985971;28;1743;-60
2021/03/01 04:54:49;;;;;;;;;;;;;;;;;;4987402;28;853;-61
2021/03/01 04:57:15;;;;;;;;;;;;;;;;;;4987385;28;1690;-62
2021/03/01 04:59:41;;;;;;;;;;;;;;;;;;5012768;28;1374;-60
2021/03/01 05:02:08;;;;;;;;;;;;;;;;;;5007320;28;784;-59
2021/03/01 05:04:34;;;;;;;;;;;;;;;;;;5039445;28;1995;-60
2021/03/01 05:06:59;;;;;;;;;;;;;;;;;;5026432;28;1631;-62
2021/03/01 05:09:25;;;;;;;;;;;;;;;;;;5026230;28;882;-60
2021/03/01 05:11:50;;;;;;;;;;;;;;;;;;5026315;28;867;-61
2021/03/01 05:14:15;;;;;;;;;;;;;;;;;;5026609;28;991;-61
2021/03/01 05:16:41;;;;;;;;;;;;;;;;;;5021986;28;1631;-61
2021/03/01 05:19:07;;;;;;;;;;;;;;;;;;5019128;28;1582;-60
2021/03/01 05:21:32;;;;;;;;;;;;;;;;;;5021155;28;1475;-62
2021/03/01 05:23:58;;;;;;;;;;;;;;;;;;5011815;28;1599;-61
2021/03/01 05:26:24;;;;;;;;;;;;;;;;;;5005596;28;1894;-61
2021/03/01 05:28:49;;;;;;;;;;;;;;;;;;5005367;28;1567;-61
2021/03/01 05:31:15;;;;;;;;;;;;;;;;;;5021790;28;1301;-62
2021/03/01 05:33:41;;;;;;;;;;;;;;;;;;5025406;28;984;-59
2021/03/01 05:36:07;;;;;;;;;;;;;;;;;;5029584;28;1047;-60
2021/03/01 05:38:32;;;;;;;;;;;;;;;;;;5025475;28;1533;-62
2021/03/01 05:41:00;;;;;;;;;;;;;;;;;;5026854;28;844;-60
2021/03/01 05:43:26;;;;;;;;;;;;;;;;;;5024898;28;1543;-60
2021/03/01 05:45:52;;;;;;;;;;;;;;;;;;5024967;28;1894;-61
2021/03/01 05:48:18;;;;;;;;;;;;;;;;;;5021643;28;1468;-62
2021/03/01 05:50:45;;;;;;;;;;;;;;;;;;5026326;28;883;-62
2021/03/01 05:53:15;;;;;;;;;;;;;;;;;;5016647;28;1437;-62
2021/03/01 05:55:41;;;;;;;;;;;;;;;;;;5025732;28;1152;-62
2021/03/01 05:58:08;;;;;;;;;;;;;;;;;;5026718;28;911;-61
2021/03/01 06:00:34;;;;;;;;;;;;;;;;;;5027718;28;1586;-61
2021/03/01 06:03:00;;;;;;;;;;;;;;;;;;5028915;28;1103;-62
2021/03/01 06:05:25;;;;;;;;;;;;;;;;;;5036133;28;1971;-62
2021/03/01 06:07:54;;;;;;;;;;;;;;;;;;5009209;28;800;-61
2021/03/01 06:10:20;;;;;;;;;;;;;;;;;;5008886;28;849;-60
2021/03/01 06:12:45;;;;;;;;;;;;;;;;;;5015031;28;1607;-61
2021/03/01 06:15:11;;;;;;;;;;;;;;;;;;5023773;28;1584;-61
2021/03/01 06:17:36;;;;;;;;;;;;;;;;;;5029338;28;803;-61
2021/03/01 06:20:02;;;;;;;;;;;;;;;;;;5023181;28;1723;-62
2021/03/01 06:22:41;;;;;;;;;;;;;;;;;;5029385;28;921;-61
2021/03/01 06:25:08;;;;;;;;;;;;;;;;;;5028332;28;1926;-62
2021/03/01 06:27:52;;;;;;;;;;;;;;;;;;5014794;28;1588;-60
2021/03/01 06:30:20;;;;;;;;;;;;;;;;;;5028335;28;1675;-59
2021/03/01 06:33:03;;;;;;;;;;;;;;;;;;5028163;28;890;-59
2021/03/01 06:35:29;;;;;;;;;;;;;;;;;;5029083;28;893;-59
2021/03/01 06:38:13;;;;;;;;;;;;;;;;;;5029902;28;863;-58
2021/03/01 06:40:39;;;;;;;;;;;;;;;;;;5020413;28;1185;-60
2021/03/01 06:43:13;;;;;;;;;;;;;;;;;;5028492;28;1460;-59
2021/03/01 06:45:38;;;;;;;;;;;;;;;;;;5028005;28;1882;-60
2021/03/01 06:48:04;;;;;;;;;;;;;;;;;;5029614;28;874;-59
2021/03/01 06:50:32;;;;;;;;;;;;;;;;;;5025630;28;1474;-59
2021/03/01 06:53:05;;;;;;;;;;;;;;;;;;5026817;28;1519;-60
2021/03/01 06:55:31;;;;;;;;;;;;;;;;;;5012428;28;1564;-59
2021/03/01 06:57:57;;;;;;;;;;;;;;;;;;5008218;28;867;-60
2021/03/01 07:00:24;;;;;;;;;;;;;;;;;;5008371;28;1695;-60
2021/03/01 07:02:49;;;;;;;;;;;;;;;;;;5013333;28;1104;-59
2021/03/01 07:05:15;;;;;;;;;;;;;;;;;;5041721;28;1976;-60
2021/03/01 07:07:40;;;;;;;;;;;;;;;;;;5013424;28;1488;-59
2021/03/01 07:10:07;;;;;;;;;;;;;;;;;;5024166;28;1562;-59
2021/03/01 07:12:39;;;;;;;;;;;;;;;;;;5017025;28;1494;-60
2021/03/01 07:15:06;;;;;;;;;;;;;;;;;;5022748;28;2151;-59
2021/03/01 07:17:32;;;;;;;;;;;;;;;;;;5024220;28;1787;-60
2021/03/01 07:19:59;;;;;;;;;;;;;;;;;;5020217;28;1722;-59
2021/03/01 07:22:24;;;;;;;;;;;;;;;;;;5024474;28;1489;-60
2021/03/01 07:24:52;;;;;;;;;;;;;;;;;;5025093;28;1979;-59
2021/03/01 07:27:19;;;;;;;;;;;;;;;;;;5018815;28;1572;-59
2021/03/01 07:29:45;;;;;;;;;;;;;;;;;;5025322;28;1441;-59
2021/03/01 07:32:13;;;;;;;;;;;;;;;;;;5031912;28;1411;-60
2021/03/01 07:34:39;;;;;;;;;;;;;;;;;;5047679;28;909;-60
2021/03/01 07:37:05;;;;;;;;;;;;;;;;;;5045874;28;1074;-60
2021/03/01 07:39:31;;;;;;;;;;;;;;;;;;5043425;28;1087;-61
2021/03/01 07:41:57;;;;;;;;;;;;;;;;;;5023472;28;1710;-60
2021/03/01 07:44:28;;;;;;;;;;;;;;;;;;5030519;28;1965;-59
2021/03/01 07:46:54;;;;;;;;;;;;;;;;;;5024920;28;1450;-60
2021/03/01 07:49:36;;;;;;;;;;;;;;;;;;5007701;28;1262;-61
2021/03/01 07:52:01;;;;;;;;;;;;;;;;;;5008898;28;1491;-60
2021/03/01 07:54:50;;;;;;;;;;;;;;;;;;5009535;28;1400;-59
2021/03/01 07:57:16;;;;;;;;;;;;;;;;;;5014174;28;1556;-60
2021/03/01 07:59:41;;;;;;;;;;;;;;;;;;5027138;28;905;-59
2021/03/01 08:02:12;;;;;;;;;;;;;;;;;;5036963;28;1511;-60
2021/03/01 08:04:38;;;;;;;;;;;;;;;;;;5027471;28;1902;-61
2021/03/01 08:07:03;;;;;;;;;;;;;;;;;;5024566;28;1301;-60
2021/03/01 08:09:41;;;;;;;;;;;;;;;;;;5027356;28;815;-60
2021/03/01 08:12:06;;;;;;;;;;;;;;;;;;5023907;28;1438;-60
2021/03/01 08:14:47;;;;;;;;;;;;;;;;;;5024218;28;1632;-61
2021/03/01 08:17:24;;;;;;;;;;;;;;;;;;5012255;28;1681;-62
2021/03/01 08:19:50;;;;;;;;;;;;;;;;;;5025033;28;1266;-60
2021/03/01 08:22:15;;;;;;;;;;;;;;;;;;5024110;28;1635;-60
2021/03/01 08:24:45;;;;;;;;;;;;;;;;;;5025922;28;1906;-61
2021/03/01 08:27:25;;;;;;;;;;;;;;;;;;5024652;28;1642;-61
2021/03/01 08:30:09;;;;;;;;;;;;;;;;;;5021898;28;1769;-60
2021/03/01 08:32:35;;;;;;;;;;;;;;;;;;5022339;28;1466;-61
2021/03/01 08:35:19;;;;;;;;;;;;;;;;;;5040840;28;1135;-60
2021/03/01 08:37:46;;;;;;;;;;;;;;;;;;5041577;28;1059;-61
2021/03/01 08:40:18;;;;;;;;;;;;;;;;;;5025722;28;1449;-62
2021/03/01 08:42:48;;;;;;;;;;;;;;;;;;5024153;28;1592;-63
2021/03/01 08:45:34;;;;;;;;;;;;;;;;;;5022694;28;1890;-62
2021/03/01 08:48:00;;;;;;;;;;;;;;;;;;5007409;28;1515;-66
2021/03/01 08:50:33;;;;;;;;;;;;;;;;;;5020452;28;1457;-62
2021/03/01 08:52:59;;;;;;;;;;;;;;;;;;5019998;28;1458;-61
2021/03/01 08:55:24;;;;;;;;;;;;;;;;;;5019818;28;1610;-61
2021/03/01 08:58:00;;;;;;;;;;;;;;;;;;5039272;28;1522;-62
2021/03/01 09:00:27;;;;;;;;;;;;;;;;;;5020205;28;1499;-61
2021/03/01 09:03:08;;;;;;;;;;;;;;;;;;5010157;28;1473;-62
2021/03/01 09:05:34;;;;;;;;;;;;;;;;;;5024241;28;1979;-63
2021/03/01 09:08:00;;;;;;;;;;;;;;;;;;5026577;28;852;-62
2021/03/01 09:10:39;;;;;;;;;;;;;;;;;;5024004;28;941;-63
2021/03/01 09:13:05;;;;;;;;;;;;;;;;;;5016384;28;1524;-61
2021/03/01 09:15:30;;;;;;;;;;;;;;;;;;5010250;28;1540;-61
2021/03/01 09:17:56;;;;;;;;;;;;;;;;;;5025342;28;1424;-62
2021/03/01 09:20:22;;;;;;;;;;;;;;;;;;5012289;28;1603;-63
2021/03/01 09:22:47;;;;;;;;;;;;;;;;;;5018490;28;1822;-62
2021/03/01 09:25:29;;;;;;;;;;;;;;;;;;5022827;28;1973;-63
2021/03/01 09:27:54;;;;;;;;;;;;;;;;;;5051925;28;1552;-61
2021/03/01 09:30:21;;;;;;;;;;;;;;;;;;5019634;28;1414;-63
2021/03/01 09:32:59;;;;;;;;;;;;;;;;;;5022403;28;1583;-62
2021/03/01 09:35:26;;;;;;;;;;;;;;;;;;5012395;28;1361;-63
2021/03/01 09:37:52;;;;;;;;;;;;;;;;;;5018040;28;1446;-63
2021/03/01 09:40:18;;;;;;;;;;;;;;;;;;5006453;28;1509;-61
2021/03/01 09:42:48;;;;;;;;;;;;;;;;;;5007210;28;1489;-61
2021/03/01 09:45:14;;;;;;;;;;;;;;;;;;5028264;28;1918;-61
2021/03/01 09:47:40;;;;;;;;;;;;;;;;;;5037520;28;1620;-61
2021/03/01 09:50:06;;;;;;;;;;;;;;;;;;5022897;28;1571;-62
2021/03/01 09:52:32;;;;;;;;;;;;;;;;;;5023580;28;1496;-61
2021/03/01 09:54:57;;;;;;;;;;;;;;;;;;5022271;28;1498;-61
2021/03/01 09:57:28;;;;;;;;;;;;;;;;;;5024755;28;1599;-61
2021/03/01 09:59:53;;;;;;;;;;;;;;;;;;5024306;28;1448;-62
2021/03/01 10:02:20;;;;;;;;;;;;;;;;;;5022770;28;1500;-62
2021/03/01 10:04:46;;;;;;;;;;;;;;;;;;5017960;28;1902;-62
2021/03/01 10:07:19;;;;;;;;;;;;;;;;;;5024269;28;1499;-62
2021/03/01 10:09:45;;;;;;;;;;;;;;;;;;5023743;28;1590;-62
2021/03/01 10:12:11;;;;;;;;;;;;;;;;;;5009037;28;1547;-62
2021/03/01 10:14:36;;;;;;;;;;;;;;;;;;5017990;28;1447;-61
2021/03/01 10:17:15;;;;;;;;;;;;;;;;;;5028637;28;1418;-64
2021/03/01 10:19:41;;;;;;;;;;;;;;;;;;5009635;28;1583;-61
2021/03/01 10:22:06;;;;;;;;;;;;;;;;;;5026696;28;1429;-62
2021/03/01 10:24:40;;;;;;;;;;;;;;;;;;5011308;28;1989;-63
2021/03/01 10:27:07;;;;;;;;;;;;;;;;;;5020314;28;1769;-63
2021/03/01 10:29:43;;;;;;;;;;;;;;;;;;5018918;28;1599;-65
2021/03/01 10:32:22;;;;;;;;;;;;;;;;;;5028624;28;1733;-61
2021/03/01 10:34:48;;;;;;;;;;;;;;;;;;5043194;28;1552;-61
2021/03/01 10:37:15;;;;;;;;;;;;;;;;;;5010250;28;1536;-63
2021/03/01 10:39:42;;;;;;;;;;;;;;;;;;5014356;28;1387;-63
2021/03/01 10:42:13;;;;;;;;;;;;;;;;;;5046728;28;1407;-62
2021/03/01 10:44:43;;;;;;;;;;;;;;;;;;5022783;28;1918;-61
2021/03/01 10:47:18;;;;;;;;;;;;;;;;;;5008787;28;939;-63
2021/03/01 10:49:47;;;;;;;;;;;;;;;;;;5040585;28;1143;-62
2021/03/01 10:52:13;;;;;;;;;;;;;;;;;;5049205;28;906;-71
2021/03/01 10:54:39;;;;;;;;;;;;;;;;;;5028024;28;1438;-61
2021/03/01 10:57:04;;;;;;;;;;;;;;;;;;5027051;28;1572;-63
2021/03/01 10:59:30;;;;;;;;;;;;;;;;;;5032316;28;1646;-61
2021/03/01 11:01:55;;;;;;;;;;;;;;;;;;5033564;28;1575;-62
2021/03/01 11:04:21;;;;;;;;;;;;;;;;;;5032057;28;1979;-60
2021/03/01 11:06:47;;;;;;;;;;;;;;;;;;5020711;28;1548;-61
2021/03/01 11:09:12;;;;;;;;;;;;;;;;;;5023777;28;950;-63
2021/03/01 11:11:39;;;;;;;;;;;;;;;;;;5017485;28;1764;-62
2021/03/01 11:14:06;;;;;;;;;;;;;;;;;;5018998;28;1576;-62
2021/03/01 11:16:32;;;;;;;;;;;;;;;;;;5014036;28;1586;-62
2021/03/01 11:18:57;;;;;;;;;;;;;;;;;;5006789;28;831;-63
2021/03/01 11:21:23;;;;;;;;;;;;;;;;;;5022709;28;1461;-61
2021/03/01 11:23:48;;;;;;;;;;;;;;;;;;5020130;28;899;-60
2021/03/01 11:26:14;;;;;;;;;;;;;;;;;;5024582;28;1914;-60
2021/03/01 11:28:40;;;;;;;;;;;;;;;;;;5011649;28;1345;-61
2021/03/01 11:31:05;;;;;;;;;;;;;;;;;;5026460;28;1250;-61
2021/03/01 11:33:31;;;;;;;;;;;;;;;;;;5046413;28;1079;-60
2021/03/01 11:35:56;;;;;;;;;;;;;;;;;;5048292;28;803;-61
2021/03/01 11:38:22;;;;;;;;;;;;;;;;;;5039732;28;1485;-62
2021/03/01 11:40:47;;;;;;;;;;;;;;;;;;5023910;28;1570;-60
2021/03/01 11:43:13;;;;;;;;;;;;;;;;;;5054142;28;1539;-60
2021/03/01 11:45:38;;;;;;;;;;;;;;;;;;5032516;28;1977;-61
2021/03/01 11:48:04;;;;;;;;;;;;;;;;;;5026030;28;1546;-61
2021/03/01 11:50:29;;;;;;;;;;;;;;;;;;5025419;28;1227;-61
2021/03/01 11:52:55;;;;;;;;;;;;;;;;;;5024283;28;1515;-61
2021/03/01 11:55:21;;;;;;;;;;;;;;;;;;5024033;28;1465;-60
2021/03/01 11:57:46;;;;;;;;;;;;;;;;;;5024302;28;1605;-61
2021/03/01 12:00:12;;;;;;;;;;;;;;;;;;4992672;28;1518;-61
2021/03/01 12:02:38;;;;;;;;;;;;;;;;;;4992539;28;1466;-61
2021/03/01 12:05:04;;;;;;;;;;;;;;;;;;4992289;28;1975;-61
2021/03/01 12:07:29;;;;;;;;;;;;;;;;;;5002332;28;1598;-61
2021/03/01 12:09:57;;;;;;;;;;;;;;;;;;5005121;28;1521;-61
2021/03/01 12:12:23;;;;;;;;;;;;;;;;;;5002453;28;1572;-60
2021/03/01 12:14:48;;;;;;;;;;;;;;;;;;4997329;28;1565;-60
2021/03/01 12:17:13;;;;;;;;;;;;;;;;;;5004805;28;815;-61
2021/03/01 12:19:39;;;;;;;;;;;;;;;;;;5006538;28;828;-61
2021/03/01 12:22:05;;;;;;;;;;;;;;;;;;4996735;28;1408;-60
2021/03/01 12:24:31;;;;;;;;;;;;;;;;;;5006391;28;1890;-60
2021/03/01 12:26:56;;;;;;;;;;;;;;;;;;4998279;28;1563;-60
2021/03/01 12:29:22;;;;;;;;;;;;;;;;;;5000348;28;1546;-60
2021/03/01 12:31:47;;;;;;;;;;;;;;;;;;5004814;28;1633;-60
2021/03/01 12:34:12;;;;;;;;;;;;;;;;;;5003494;28;1642;-60
2021/03/01 12:36:38;;;;;;;;;;;;;;;;;;4989833;28;951;-62
2021/03/01 12:39:04;;;;;;;;;;;;;;;;;;4998180;28;918;-61
2021/03/01 12:41:30;;;;;;;;;;;;;;;;;;5004093;28;2513;-62
2021/03/01 12:43:56;;;;;;;;;;;;;;;;;;5002592;28;1596;-60
2021/03/01 12:46:21;;;;;;;;;;;;;;;;;;5005018;28;1898;-61
2021/03/01 12:48:48;;;;;;;;;;;;;;;;;;5004607;28;1637;-60
2021/03/01 12:51:13;;;;;;;;;;;;;;;;;;4995196;28;1935;-60
2021/03/01 12:53:39;;;;;;;;;;;;;;;;;;4998429;28;820;-61
2021/03/01 12:56:04;;;;;;;;;;;;;;;;;;4990834;28;910;-60
2021/03/01 12:58:30;;;;;;;;;;;;;;;;;;4991144;28;1415;-58
2021/03/01 13:00:55;;;;;;;;;;;;;;;;;;5008835;28;1778;-61
2021/03/01 13:03:20;;;;;;;;;;;;;;;;;;5025277;28;904;-60
2021/03/01 13:05:46;;;;;;;;;;;;;;;;;;5023274;28;1898;-61
2021/03/01 13:08:11;;;;;;;;;;;;;;;;;;5025275;28;1400;-61
2021/03/01 13:10:36;;;;;;;;;;;;;;;;;;5026661;28;902;-60
2021/03/01 13:13:03;;;;;;;;;;;;;;;;;;5025892;28;843;-61
2021/03/01 13:15:28;;;;;;;;;;;;;;;;;;5026344;28;859;-61
2021/03/01 13:17:53;;;;;;;;;;;;;;;;;;5029168;28;1314;-61
2021/03/01 13:20:19;;;;;;;;;;;;;;;;;;5030747;28;806;-60
2021/03/01 13:22:44;;;;;;;;;;;;;;;;;;5030301;28;835;-61
2021/03/01 13:25:10;;;;;;;;;;;;;;;;;;5025232;28;1890;-61
2021/03/01 13:27:35;;;;;;;;;;;;;;;;;;5029553;28;1601;-60
2021/03/01 13:30:01;;;;;;;;;;;;;;;;;;5020941;28;1410;-60
2021/03/01 13:32:26;;;;;;;;;;;;;;;;;;5029734;28;877;-60
2021/03/01 13:34:53;;;;;;;;;;;;;;;;;;5028849;28;1397;-59
2021/03/01 13:37:18;;;;;;;;;;;;;;;;;;5027922;28;1287;-60
2021/03/01 13:39:44;;;;;;;;;;;;;;;;;;5027840;28;1621;-61
2021/03/01 13:42:09;;;;;;;;;;;;;;;;;;5028278;28;2558;-60
2021/03/01 13:44:34;;;;;;;;;;;;;;;;;;5025870;28;1890;-59
2021/03/01 13:47:00;;;;;;;;;;;;;;;;;;5028309;28;1494;-59
2021/03/01 13:49:25;;;;;;;;;;;;;;;;;;5022721;28;1400;-61
2021/03/01 13:51:51;;;;;;;;;;;;;;;;;;5029534;28;819;-59
2021/03/01 13:54:17;;;;;;;;;;;;;;;;;;5029221;28;855;-59
2021/03/01 13:56:42;;;;;;;;;;;;;;;;;;5032641;28;1164;-60
2021/03/01 13:59:08;;;;;;;;;;;;;;;;;;5027732;28;1482;-60
2021/03/01 14:01:34;;;;;;;;;;;;;;;;;;5026881;28;1470;-60
2021/03/01 14:03:59;;;;;;;;;;;;;;;;;;5035873;28;1625;-60
2021/03/01 14:06:24;;;;;;;;;;;;;;;;;;5021443;28;1985;-59
2021/03/01 14:08:50;;;;;;;;;;;;;;;;;;5015720;28;889;-59
2021/03/01 14:11:15;;;;;;;;;;;;;;;;;;5022495;28;971;-60
2021/03/01 14:13:40;;;;;;;;;;;;;;;;;;5027264;28;1391;-60
2021/03/01 14:16:06;;;;;;;;;;;;;;;;;;5030967;28;977;-60
2021/03/01 14:18:31;;;;;;;;;;;;;;;;;;5025454;28;1430;-60
2021/03/01 14:20:57;;;;;;;;;;;;;;;;;;5021145;28;1433;-59
2021/03/01 14:23:22;;;;;;;;;;;;;;;;;;5029036;28;811;-59
2021/03/01 14:25:48;;;;;;;;;;;;;;;;;;5029706;28;1890;-59
2021/03/01 14:28:13;;;;;;;;;;;;;;;;;;5022091;28;1632;-60
2021/03/01 14:30:38;;;;;;;;;;;;;;;;;;5026677;28;1595;-61
2021/03/01 14:33:04;;;;;;;;;;;;;;;;;;5024314;28;1510;-61
2021/03/01 14:35:29;;;;;;;;;;;;;;;;;;5025415;28;1458;-61
2021/03/01 14:37:55;;;;;;;;;;;;;;;;;;5026818;28;1219;-63
2021/03/01 14:40:20;;;;;;;;;;;;;;;;;;5027534;28;1163;-62
2021/03/01 14:42:45;;;;;;;;;;;;;;;;;;5026615;28;1418;-59
2021/03/01 14:45:11;;;;;;;;;;;;;;;;;;5027189;28;1913;-59
2021/03/01 14:47:36;;;;;;;;;;;;;;;;;;5027294;28;1377;-60
2021/03/01 14:50:03;;;;;;;;;;;;;;;;;;5023384;28;1548;-61
2021/03/01 14:52:28;;;;;;;;;;;;;;;;;;5022861;28;1434;-59
2021/03/01 14:54:54;;;;;;;;;;;;;;;;;;5026062;28;1500;-62
2021/03/01 14:57:19;;;;;;;;;;;;;;;;;;5024031;28;1494;-60
2021/03/01 14:59:45;;;;;;;;;;;;;;;;;;5024477;28;1348;-61
2021/03/01 15:02:10;;;;;;;;;;;;;;;;;;5025469;28;1331;-60
2021/03/01 15:04:35;;;;;;;;;;;;;;;;;;5022885;28;1930;-61
2021/03/01 15:07:01;;;;;;;;;;;;;;;;;;5010392;28;1675;-61
2021/03/01 15:09:27;;;;;;;;;;;;;;;;;;5011075;28;1197;-61
2021/03/01 15:11:52;;;;;;;;;;;;;;;;;;5011682;28;1299;-61
2021/03/01 15:14:18;;;;;;;;;;;;;;;;;;5009802;28;1480;-62
2021/03/01 15:16:44;;;;;;;;;;;;;;;;;;5011840;28;1161;-63
2021/03/01 15:19:09;;;;;;;;;;;;;;;;;;5011569;28;1161;-61
2021/03/01 15:21:35;;;;;;;;;;;;;;;;;;5013319;28;1262;-61
2021/03/01 15:24:00;;;;;;;;;;;;;;;;;;5011756;28;1186;-61
2021/03/01 15:26:26;;;;;;;;;;;;;;;;;;5012680;28;2004;-61
2021/03/01 15:28:51;;;;;;;;;;;;;;;;;;5021283;28;1342;-61
2021/03/01 15:31:17;;;;;;;;;;;;;;;;;;5025291;28;1691;-60
2021/03/01 15:33:42;;;;;;;;;;;;;;;;;;5023646;28;1269;-61
2021/03/01 15:36:09;;;;;;;;;;;;;;;;;;5031769;28;1637;-61
2021/03/01 15:38:34;;;;;;;;;;;;;;;;;;5028299;28;1102;-62
2021/03/01 15:41:00;;;;;;;;;;;;;;;;;;5027052;28;1089;-63
2021/03/01 15:43:25;;;;;;;;;;;;;;;;;;5027757;28;1043;-60
2021/03/01 15:45:51;;;;;;;;;;;;;;;;;;5027367;28;1969;-60
2021/03/01 15:48:16;;;;;;;;;;;;;;;;;;5020560;28;1091;-60
2021/03/01 15:50:43;;;;;;;;;;;;;;;;;;5026149;28;1144;-60
2021/03/01 15:53:09;;;;;;;;;;;;;;;;;;5025742;28;1544;-60
2021/03/01 15:55:34;;;;;;;;;;;;;;;;;;5025657;28;1428;-60
2021/03/01 15:58:00;;;;;;;;;;;;;;;;;;5009618;28;1725;-62
2021/03/01 16:00:34;;;;;;;;;;;;;;;;;;5052785;27;1735;-61
2021/03/01 16:03:00;;;;;;;;;;;;;;;;;;5062026;28;1523;-61
2021/03/01 16:05:25;;;;;;;;;;;;;;;;;;5062579;28;1421;-60
2021/03/01 16:07:51;;;;;;;;;;;;;;;;;;5063655;28;854;-60
2021/03/01 16:10:16;;;;;;;;;;;;;;;;;;5061048;28;1545;-59
2021/03/01 16:12:41;;;;;;;;;;;;;;;;;;5063559;28;844;-60
2021/03/01 16:15:08;;;;;;;;;;;;;;;;;;5065134;28;1763;-62
2021/03/01 16:17:33;;;;;;;;;;;;;;;;;;5074800;28;981;-59
2021/03/01 16:19:59;;;;;;;;;;;;;;;;;;5074331;28;1955;-60
2021/03/01 16:22:24;;;;;;;;;;;;;;;;;;5062327;28;1227;-59
2021/03/01 16:24:50;;;;;;;;;;;;;;;;;;5076576;28;1336;-60
2021/03/01 16:27:15;;;;;;;;;;;;;;;;;;5074101;28;1032;-63
2021/03/01 16:29:41;;;;;;;;;;;;;;;;;;5065126;28;1059;-60
2021/03/01 16:32:06;;;;;;;;;;;;;;;;;;5055471;28;1907;-61
2021/03/01 16:34:33;;;;;;;;;;;;;;;;;;5057574;28;1912;-63
2021/03/01 16:36:58;;;;;;;;;;;;;;;;;;5025851;28;2170;-62
2021/03/01 16:39:23;;;;;;;;;;;;;;;;;;5057424;28;3198;-61
2021/03/01 16:41:49;;;;;;;;;;;;;;;;;;5070245;28;1016;-62
2021/03/01 16:44:15;;;;;;;;;;;;;;;;;;5076956;28;1219;-63
2021/03/01 16:46:41;;;;;;;;;;;;;;;;;;5052480;28;2332;-60
2021/03/01 16:49:08;;;;;;;;;;;;;;;;;;5051124;28;2453;-60
2021/03/01 16:51:34;;;;;;;;;;;;;;;;;;5069797;28;1080;-60
2021/03/01 16:53:59;;;;;;;;;;;;;;;;;;5067568;28;1145;-60
2021/03/01 16:56:25;;;;;;;;;;;;;;;;;;5079428;28;1244;-59
2021/03/01 16:58:53;;;;;;;;;;;;;;;;;;5072251;28;1989;-61
2021/03/01 17:01:22;;;;;;;;;;;;;;;;;;5040733;27;3270;-60
2021/03/01 17:03:51;;;;;;;;;;;;;;;;;;5075427;28;963;-60
2021/03/01 17:06:28;;;;;;;;;;;;;;;;;;5078407;28;1250;-60